Time;durP1;ratioP1;P1;durP2;ratioP2;P2;SDS_P1;SDS_P2;PMS_P1;PMS_P2;Temp;Humidity;BMP_temperature;BMP_pressure;BME280_temperature;BME280_humidity;BME280_pressure;Samples;Min_cycle;Max_cycle;Signal;HPM_P1;HPM_P2
2023/04/23 00:01:05;;;;;;;8.18;7.50;;;;;;;9.72;100.00;100352.75;7789456;18;20017;-74
2023/04/23 00:03:33;;;;;;;9.13;8.20;;;;;;;9.62;100.00;100330.59;7788939;18;19999;-74
2023/04/23 00:06:09;;;;;;;8.60;7.78;;;;;;;9.67;100.00;100345.16;7789771;18;20018;-74
2023/04/23 00:08:41;;;;;;;8.70;7.85;;;;;;;9.74;100.00;100353.50;7748224;18;20004;-75
2023/04/23 00:11:09;;;;;;;8.32;7.50;;;;;;;9.69;100.00;100351.16;7785747;18;20002;-75
2023/04/23 00:13:36;;;;;;;9.05;7.28;;;;;;;9.75;100.00;100352.59;7787886;18;20158;-74
2023/04/23 00:16:03;;;;;;;10.02;8.55;;;;;;;9.74;100.00;100358.75;7788986;18;20434;-74
2023/04/23 00:18:30;;;;;;;9.68;8.70;;;;;;;9.69;100.00;100352.94;7788551;18;19994;-73
2023/04/23 00:20:56;;;;;;;7.45;6.85;;;;;;;9.64;100.00;100337.47;7787379;18;20202;-74
2023/04/23 00:23:23;;;;;;;17.42;9.48;;;;;;;9.46;100.00;100309.63;7788385;18;20009;-74
2023/04/23 00:25:49;;;;;;;10.05;7.50;;;;;;;9.58;100.00;100330.78;7789494;18;20457;-74
2023/04/23 00:28:16;;;;;;;9.52;7.93;;;;;;;9.55;100.00;100323.06;7747222;18;20665;-73
2023/04/23 00:30:43;;;;;;;11.80;7.22;;;;;;;9.67;100.00;100357.41;7788540;18;20411;-77
2023/04/23 00:33:09;;;;;;;11.63;9.40;;;;;;;9.67;100.00;100352.16;7787502;18;20010;-76
2023/04/23 00:35:35;;;;;;;9.32;7.45;;;;;;;9.14;100.00;100272.91;7789877;18;20020;-73
2023/04/23 00:38:02;;;;;;;8.60;7.65;;;;;;;9.61;100.00;100350.72;7788605;18;20010;-74
2023/04/23 00:40:28;;;;;;;9.25;8.35;;;;;;;8.77;100.00;100215.50;7789457;18;20534;-72
2023/04/23 00:42:55;;;;;;;9.15;8.45;;;;;;;9.47;100.00;100333.13;7789173;18;20029;-73
2023/04/23 00:45:21;;;;;;;8.65;7.70;;;;;;;9.55;100.00;100335.34;7789167;18;20062;-74
2023/04/23 00:47:48;;;;;;;9.10;8.30;;;;;;;8.88;100.00;100229.78;7787860;18;20523;-73
2023/04/23 00:50:15;;;;;;;9.93;7.88;;;;;;;9.31;100.00;100304.28;7789774;18;20002;-75
2023/04/23 00:52:41;;;;;;;14.60;8.00;;;;;;;9.49;100.00;100335.66;7789518;18;19994;-73
2023/04/23 00:55:08;;;;;;;11.20;8.05;;;;;;;9.48;100.00;100333.97;7787861;18;20010;-74
2023/04/23 00:57:38;;;;;;;9.77;8.77;;;;;;;9.48;100.00;100342.69;7747341;18;19998;-74
2023/04/23 01:00:06;;;;;;;8.35;7.50;;;;;;;8.81;100.00;100234.50;7787274;18;20596;-73
2023/04/23 01:02:35;;;;;;;8.38;7.57;;;;;;;9.31;100.00;100321.78;7788743;18;20005;-73
2023/04/23 01:05:03;;;;;;;9.10;7.90;;;;;;;9.26;100.00;100315.91;7788620;18;20002;-74
2023/04/23 01:07:34;;;;;;;7.95;7.13;;;;;;;8.61;100.00;100212.00;7789493;18;20614;-73
2023/04/23 01:10:02;;;;;;;8.85;7.65;;;;;;;9.32;100.00;100333.94;7787383;18;20054;-74
2023/04/23 01:12:29;;;;;;;8.10;7.28;;;;;;;9.24;100.00;100330.88;7789487;18;20366;-73
2023/04/23 01:14:55;;;;;;;11.25;9.00;;;;;;;8.83;100.00;100257.97;7788386;18;20064;-73
2023/04/23 01:17:22;;;;;;;9.93;8.27;;;;;;;9.27;100.00;100347.28;7789293;18;20100;-73
2023/04/23 01:19:48;;;;;;;8.15;7.35;;;;;;;9.19;100.00;100331.13;7746389;18;20041;-75
2023/04/23 01:22:15;;;;;;;8.00;7.20;;;;;;;9.13;100.00;100328.81;7790105;18;20017;-76
2023/04/23 01:24:42;;;;;;;8.25;7.45;;;;;;;9.07;100.00;100332.59;7745810;18;20072;-73
2023/04/23 01:27:09;;;;;;;7.88;7.28;;;;;;;9.05;100.00;100339.69;7788350;18;20065;-74
2023/04/23 01:29:37;;;;;;;9.13;7.53;;;;;;;8.41;100.00;100233.06;7786930;18;19998;-73
2023/04/23 01:32:04;;;;;;;11.40;8.63;;;;;;;8.97;100.00;100318.28;7788551;18;20376;-73
2023/04/23 01:34:31;;;;;;;10.00;8.02;;;;;;;8.83;100.00;100299.84;7787542;18;20360;-73
2023/04/23 01:36:58;;;;;;;9.00;7.40;;;;;;;8.19;100.00;100211.44;7788121;18;20375;-75
2023/04/23 01:39:25;;;;;;;10.48;8.13;;;;;;;8.39;100.00;100220.91;7788500;18;20495;-72
2023/04/23 01:41:52;;;;;;;9.27;8.38;;;;;;;8.50;100.00;100249.19;7788285;18;20017;-73
2023/04/23 01:44:18;;;;;;;8.65;7.75;;;;;;;8.99;100.00;100319.06;7787958;18;20021;-75
2023/04/23 01:46:45;;;;;;;9.57;8.57;;;;;;;8.90;100.00;100316.91;7747352;18;20151;-72
2023/04/23 01:49:12;;;;;;;8.55;7.68;;;;;;;8.91;100.00;100321.22;7787491;18;20528;-75
2023/04/23 01:51:38;;;;;;;11.18;7.82;;;;;;;8.84;100.00;100322.47;7788404;18;20053;-74
2023/04/23 01:54:05;;;;;;;11.90;8.30;;;;;;;8.87;100.00;100319.69;7744725;18;20423;-72
2023/04/23 01:56:33;;;;;;;11.65;8.25;;;;;;;8.69;100.00;100327.53;7788518;18;20479;-75
2023/04/23 01:59:00;;;;;;;8.38;7.68;;;;;;;8.63;100.00;100330.47;7746119;18;20131;-74
2023/04/23 02:01:53;;;;;;;9.80;8.77;;;;;;;8.53;100.00;100327.47;7788541;18;20053;-76
2023/04/23 02:04:19;;;;;;;8.77;7.95;;;;;;;8.54;100.00;100328.34;7778940;18;20360;-75
2023/04/23 02:06:49;;;;;;;10.15;8.13;;;;;;;7.94;100.00;100250.19;7788319;18;20023;-73
2023/04/23 02:09:15;;;;;;;9.52;8.15;;;;;;;8.36;100.00;100327.44;7788137;18;20016;-75
2023/04/23 02:11:42;;;;;;;8.35;7.63;;;;;;;8.02;100.00;100273.31;7786329;18;20240;-73
2023/04/23 02:14:09;;;;;;;9.40;8.50;;;;;;;8.26;100.00;100324.41;7785806;18;20005;-76
2023/04/23 02:16:35;;;;;;;10.23;8.27;;;;;;;7.99;100.00;100298.66;7788672;18;20028;-74
2023/04/23 02:19:02;;;;;;;9.80;8.63;;;;;;;7.83;100.00;100273.38;7791179;18;20013;-76
2023/04/23 02:21:28;;;;;;;9.98;9.00;;;;;;;8.07;100.00;100314.00;7787294;18;20447;-77
2023/04/23 02:23:55;;;;;;;8.82;7.53;;;;;;;8.09;100.00;100324.38;7786196;18;20266;-72
2023/04/23 02:26:23;;;;;;;13.40;9.07;;;;;;;8.11;100.00;100331.22;7788014;18;20009;-77
2023/04/23 02:28:50;;;;;;;8.68;7.88;;;;;;;8.10;100.00;100332.16;7787857;18;20216;-73
2023/04/23 02:31:16;;;;;;;7.00;6.30;;;;;;;8.09;100.00;100325.22;7788216;18;20010;-72
2023/04/23 02:33:43;;;;;;;9.60;8.70;;;;;;;8.08;100.00;100322.66;7787807;18;19997;-73
2023/04/23 02:36:12;;;;;;;15.10;9.88;;;;;;;7.70;100.00;100260.06;7788064;18;20014;-74
2023/04/23 02:38:41;;;;;;;9.88;7.65;;;;;;;8.07;100.00;100323.59;7787261;18;20389;-73
2023/04/23 02:41:07;;;;;;;10.50;9.32;;;;;;;7.64;100.00;100242.03;7787438;18;20022;-73
2023/04/23 02:43:34;;;;;;;9.50;8.65;;;;;;;8.01;100.00;100298.59;7788020;18;20550;-74
2023/04/23 02:46:06;;;;;;;14.05;9.20;;;;;;;8.15;100.00;100306.63;7787109;18;20508;-74
2023/04/23 02:48:38;;;;;;;12.30;9.50;;;;;;;8.16;100.00;100310.09;7787742;18;20002;-74
2023/04/23 02:51:06;;;;;;;8.95;8.10;;;;;;;8.18;100.00;100318.72;7786814;18;19998;-74
2023/04/23 02:53:33;;;;;;;10.75;8.98;;;;;;;8.23;100.00;100316.72;7786121;18;20292;-74
2023/04/23 02:56:00;;;;;;;32.90;30.88;;;;;;;7.51;100.00;100224.34;7746315;18;20023;-75
2023/04/23 02:58:26;;;;;;;11.23;8.55;;;;;;;7.72;100.00;100217.25;7604838;18;20005;-76
2023/04/23 03:00:53;;;;;;;9.77;7.57;;;;;;;8.37;100.00;100314.25;7785700;18;20115;-78
2023/04/23 03:03:19;;;;;;;11.07;9.48;;;;;;;7.91;100.00;100230.25;7787541;18;20376;-72
2023/04/23 03:05:46;;;;;;;13.32;9.07;;;;;;;8.46;100.00;100317.38;7787566;18;20028;-74
2023/04/23 03:08:13;;;;;;;15.52;9.77;;;;;;;8.02;100.00;100244.56;7786998;18;20002;-74
2023/04/23 03:10:40;;;;;;;9.23;7.60;;;;;;;8.46;100.00;100312.16;7788470;18;20006;-74
2023/04/23 03:13:06;;;;;;;12.15;9.00;;;;;;;8.41;100.00;100309.78;7784845;18;20025;-73
2023/04/23 03:15:32;;;;;;;15.00;8.57;;;;;;;7.92;100.00;100234.59;7788418;18;20621;-74
2023/04/23 03:18:00;;;;;;;10.80;8.88;;;;;;;8.29;100.00;100284.19;7787665;18;19998;-73
2023/04/23 03:20:27;;;;;;;10.07;9.05;;;;;;;8.38;100.00;100304.69;7786315;18;20002;-73
2023/04/23 03:22:53;;;;;;;14.82;9.63;;;;;;;6.97;100.00;100087.69;7746844;18;20242;-77
2023/04/23 03:25:21;;;;;;;11.50;8.73;;;;;;;8.24;100.00;100304.47;7747064;18;20069;-74
2023/04/23 03:27:47;;;;;;;13.25;8.77;;;;;;;7.77;100.00;100245.75;7788374;18;20660;-73
2023/04/23 03:30:14;;;;;;;10.27;8.30;;;;;;;7.72;100.00;100232.09;7788137;18;20375;-73
2023/04/23 03:32:40;;;;;;;11.30;9.43;;;;;;;8.13;100.00;100299.78;7788020;18;20005;-76
2023/04/23 03:35:08;;;;;;;12.68;9.07;;;;;;;7.86;100.00;100271.47;7744846;18;20457;-73
2023/04/23 03:37:34;;;;;;;12.88;9.27;;;;;;;8.13;100.00;100302.41;7788677;18;20001;-75
2023/04/23 03:40:06;;;;;;;15.38;9.82;;;;;;;8.12;100.00;100305.94;7786300;18;20335;-73
2023/04/23 03:42:33;;;;;;;13.98;10.57;;;;;;;8.08;100.00;100305.25;7748305;18;20364;-74
2023/04/23 03:44:59;;;;;;;18.23;11.02;;;;;;;7.78;100.00;100253.53;7787392;18;20114;-72
2023/04/23 03:47:26;;;;;;;10.82;9.00;;;;;;;8.07;100.00;100300.94;7746537;18;20005;-73
2023/04/23 03:49:53;;;;;;;12.88;9.88;;;;;;;8.07;100.00;100294.84;7787587;18;20337;-73
2023/04/23 03:52:22;;;;;;;16.83;10.35;;;;;;;8.10;100.00;100297.34;7789233;18;20506;-72
2023/04/23 03:54:48;;;;;;;14.60;9.40;;;;;;;8.09;100.00;100298.25;7786554;18;20060;-74
2023/04/23 03:57:15;;;;;;;9.00;8.10;;;;;;;7.63;100.00;100228.13;7788648;18;20005;-74
2023/04/23 03:59:41;;;;;;;13.88;9.57;;;;;;;8.06;100.00;100303.59;7745650;18;20013;-73
2023/04/23 04:02:08;;;;;;;16.02;10.35;;;;;;;8.09;100.00;100309.53;7787244;18;19998;-72
2023/04/23 04:04:37;;;;;;;10.38;8.43;;;;;;;7.96;100.00;100282.31;7787410;18;19994;-73
2023/04/23 04:07:06;;;;;;;14.27;10.32;;;;;;;7.62;100.00;100215.16;7746498;18;20430;-74
2023/04/23 04:09:32;;;;;;;10.88;9.52;;;;;;;8.23;100.00;100301.03;7786443;18;20033;-73
2023/04/23 04:11:59;;;;;;;11.07;9.95;;;;;;;7.90;100.00;100252.09;7786586;18;20621;-74
2023/04/23 04:14:27;;;;;;;11.95;10.35;;;;;;;8.26;100.00;100302.63;7785927;18;19998;-73
2023/04/23 04:16:54;;;;;;;13.27;9.77;;;;;;;8.26;100.00;100300.91;7787529;18;20392;-73
2023/04/23 04:19:20;;;;;;;13.32;10.35;;;;;;;6.98;100.00;100087.63;7786184;18;20065;-72
2023/04/23 04:21:47;;;;;;;19.50;10.98;;;;;;;8.31;100.00;100309.34;7787766;18;20057;-73
2023/04/23 04:24:13;;;;;;;17.88;10.77;;;;;;;8.04;100.00;100268.84;7786908;18;20247;-72
2023/04/23 04:26:40;;;;;;;11.68;9.60;;;;;;;7.67;100.00;100197.50;7786426;18;20062;-72
2023/04/23 04:29:09;;;;;;;16.92;11.02;;;;;;;8.47;100.00;100303.41;7785383;18;20009;-69
2023/04/23 04:31:36;;;;;;;14.15;10.25;;;;;;;8.55;100.00;100296.84;7785769;18;20013;-69
2023/04/23 04:34:02;;;;;;;15.23;11.18;;;;;;;8.18;100.00;100225.47;7743179;18;20478;-71
2023/04/23 04:36:29;;;;;;;11.05;9.90;;;;;;;8.68;100.00;100291.00;7786333;18;20072;-73
2023/04/23 04:38:57;;;;;;;16.60;11.05;;;;;;;8.37;100.00;100238.44;7744478;18;20254;-70
2023/04/23 04:41:24;;;;;;;15.68;9.98;;;;;;;8.63;100.00;100274.72;7787587;18;20458;-71
2023/04/23 04:43:51;;;;;;;16.02;10.07;;;;;;;8.68;100.00;100288.38;7787772;18;20033;-71
2023/04/23 04:46:20;;;;;;;11.73;10.38;;;;;;;8.94;100.00;100308.84;7787351;18;20046;-71
2023/04/23 04:48:47;;;;;;;17.00;10.35;;;;;;;9.06;100.00;100322.19;7788113;18;20042;-70
2023/04/23 04:51:14;;;;;;;13.85;10.35;;;;;;;8.63;100.00;100204.09;7787996;18;19994;-73
2023/04/23 04:53:40;;;;;;;14.85;9.23;;;;;;;9.57;100.00;100313.34;7788104;18;20025;-71
2023/04/23 04:56:07;;;;;;;15.75;10.27;;;;;;;9.94;100.00;100313.97;7787075;18;20477;-72
2023/04/23 04:58:34;;;;;;;13.73;10.15;;;;;;;9.67;100.00;100247.38;7788401;18;19998;-70
2023/04/23 05:01:00;;;;;;;18.92;11.57;;;;;;;10.16;100.00;100328.47;7786675;18;20502;-71
2023/04/23 05:03:27;;;;;;;16.10;10.48;;;;;;;10.14;100.00;100322.47;7788055;18;19994;-72
2023/04/23 05:05:55;;;;;;;18.27;11.38;;;;;;;9.64;100.00;100255.38;7789395;18;20320;-70
2023/04/23 05:08:21;;;;;;;10.15;9.02;;;;;;;9.92;100.00;100314.97;7787737;18;20373;-69
2023/04/23 05:10:49;;;;;;;10.82;9.73;;;;;;;9.61;100.00;100268.66;7787460;18;20006;-70
2023/04/23 05:13:16;;;;;;;16.70;10.35;;;;;;;9.91;100.00;100305.44;7787310;18;20011;-70
2023/04/23 05:15:42;;;;;;;10.25;9.23;;;;;;;9.89;100.00;100295.03;7787858;18;20001;-71
2023/04/23 05:18:09;;;;;;;12.25;9.70;;;;;;;9.83;100.00;100291.91;7744835;18;20034;-70
2023/04/23 05:20:37;;;;;;;15.65;9.88;;;;;;;9.91;100.00;100295.78;7788140;18;20009;-69
2023/04/23 05:23:03;;;;;;;15.10;10.57;;;;;;;9.36;100.00;100207.13;7786399;18;20020;-69
2023/04/23 05:25:31;;;;;;;9.40;8.48;;;;;;;9.96;100.00;100290.28;7790586;18;19998;-70
2023/04/23 05:27:57;;;;;;;17.73;12.15;;;;;;;10.01;100.00;100293.50;7787515;18;20002;-71
2023/04/23 05:30:24;;;;;;;15.00;11.98;;;;;;;10.04;100.00;100289.84;7788188;18;19998;-70
2023/04/23 05:32:50;;;;;;;13.13;9.20;;;;;;;10.09;100.00;100293.06;7787632;18;20004;-73
2023/04/23 05:35:16;;;;;;;10.98;9.38;;;;;;;10.11;100.00;100288.59;7787260;18;20068;-70
2023/04/23 05:37:43;;;;;;;14.00;10.25;;;;;;;10.17;100.00;100296.09;7787249;18;20069;-72
2023/04/23 05:40:10;;;;;;;12.60;9.52;;;;;;;10.24;100.00;100296.59;7787536;18;20009;-72
2023/04/23 05:42:36;;;;;;;9.93;8.50;;;;;;;10.10;100.00;100272.00;7788149;18;20243;-72
2023/04/23 05:45:03;;;;;;;10.82;9.65;;;;;;;9.77;100.00;100199.59;7785812;18;20002;-71
2023/04/23 05:47:33;;;;;;;12.48;10.32;;;;;;;10.40;100.00;100296.56;7786972;18;20002;-71
2023/04/23 05:50:00;;;;;;;12.52;10.68;;;;;;;10.01;100.00;100220.09;7787108;18;20294;-70
2023/04/23 05:52:30;;;;;;;8.85;7.97;;;;;;;10.51;100.00;100299.44;7787768;18;20029;-71
2023/04/23 05:54:56;;;;;;;13.70;9.43;;;;;;;10.56;100.00;100292.13;7786371;18;20403;-71
2023/04/23 05:57:23;;;;;;;13.82;9.25;;;;;;;10.60;100.00;100290.16;7789361;18;20010;-70
2023/04/23 05:59:49;;;;;;;13.63;10.00;;;;;;;10.66;100.00;100297.69;7785549;18;20141;-71
2023/04/23 06:02:16;;;;;;;9.57;8.48;;;;;;;10.69;100.00;100294.88;7788496;18;20001;-71
2023/04/23 06:04:45;;;;;;;10.13;8.60;;;;;;;10.71;100.00;100279.91;7789171;18;20246;-70
2023/04/23 06:07:14;;;;;;;11.38;10.10;;;;;;;10.67;100.00;100262.66;7747000;18;20255;-70
2023/04/23 06:09:40;;;;;;;9.98;8.98;;;;;;;10.92;100.00;100285.63;7785731;18;20028;-73
2023/04/23 06:12:07;;;;;;;17.65;10.20;;;;;;;10.33;100.00;100172.81;7785307;18;20013;-73
2023/04/23 06:14:33;;;;;;;13.27;9.55;;;;;;;11.14;100.00;100282.53;7786987;18;20435;-70
2023/04/23 06:16:59;;;;;;;9.63;8.68;;;;;;;11.17;100.00;100264.81;7744745;18;20399;-72
2023/04/23 06:19:26;;;;;;;12.32;9.63;;;;;;;11.04;100.00;100223.66;7786773;18;19997;-71
2023/04/23 06:21:53;;;;;;;10.18;8.73;;;;;;;11.55;100.00;100282.59;7788371;18;19994;-71
2023/04/23 06:24:19;;;;;;;9.95;8.82;;;;;;;11.72;100.00;100278.06;7785585;18;20014;-71
2023/04/23 06:26:46;;;;;;;9.65;8.63;;;;;;;11.60;100.00;100231.53;7787914;18;19998;-72
2023/04/23 06:29:12;;;;;;;12.25;9.13;;;;;;;11.91;100.00;100270.72;7785532;18;20151;-70
2023/04/23 06:31:40;;;;;;;10.52;7.97;;;;;;;12.07;100.00;100269.72;7787842;18;20082;-72
2023/04/23 06:34:06;;;;;;;9.88;9.00;;;;;;;11.93;100.00;100220.66;7785402;18;19998;-73
2023/04/23 06:36:33;;;;;;;9.07;7.93;;;;;;;12.46;100.00;100265.41;7787145;18;20030;-70
2023/04/23 06:39:00;;;;;;;9.77;8.77;;;;;;;12.39;100.00;100267.59;7786787;18;20028;-72
2023/04/23 06:41:26;;;;;;;9.63;8.68;;;;;;;12.57;100.00;100279.53;7786633;18;20431;-72
2023/04/23 06:43:53;;;;;;;13.63;9.00;;;;;;;11.53;100.00;100090.03;7787458;18;20124;-73
2023/04/23 06:46:19;;;;;;;10.18;8.25;;;;;;;12.74;100.00;100272.28;7787013;18;20048;-72
2023/04/23 06:48:46;;;;;;;10.07;9.10;;;;;;;12.67;100.00;100269.22;7785976;18;20367;-71
2023/04/23 06:51:13;;;;;;;9.85;8.40;;;;;;;12.15;100.00;100175.38;7786830;18;20061;-72
2023/04/23 06:53:39;;;;;;;9.38;8.50;;;;;;;12.60;100.00;100249.50;7784109;18;20013;-70
2023/04/23 06:56:06;;;;;;;11.05;8.45;;;;;;;12.36;100.00;100223.91;7786451;18;20611;-72
2023/04/23 06:58:33;;;;;;;9.48;8.40;;;;;;;12.37;100.00;100222.13;7786499;18;20002;-72
2023/04/23 07:01:00;;;;;;;8.73;7.78;;;;;;;12.57;100.00;100237.41;7743160;18;19990;-71
2023/04/23 07:03:27;;;;;;;8.93;7.88;;;;;;;12.67;100.00;100240.25;7786289;18;20000;-72
2023/04/23 07:05:53;;;;;;;10.68;8.13;;;;;;;12.73;100.00;100239.00;7786738;18;20030;-71
2023/04/23 07:08:20;;;;;;;10.77;7.85;;;;;;;12.91;100.00;100236.88;7786236;18;20142;-72
2023/04/23 07:10:47;;;;;;;8.70;7.82;;;;;;;12.61;100.00;100161.72;7786175;18;20360;-72
2023/04/23 07:13:14;;;;;;;8.93;8.23;;;;;;;13.27;100.00;100222.06;7785787;18;20034;-71
2023/04/23 07:15:41;;;;;;;8.70;7.97;;;;;;;13.30;100.00;100228.00;7787477;18;20011;-72
2023/04/23 07:18:08;;;;;;;8.05;7.35;;;;;;;13.30;100.00;100177.09;7783439;18;20229;-71
2023/04/23 07:20:35;;;;;;;13.20;7.63;;;;;;;13.82;100.00;100218.13;7784801;18;19998;-72
2023/04/23 07:23:02;;;;;;;8.63;7.82;;;;;;;13.89;100.00;100210.59;7785498;18;20081;-73
2023/04/23 07:25:30;;;;;;;7.97;7.30;;;;;;;13.96;100.00;100203.91;7786912;18;20038;-71
2023/04/23 07:27:56;;;;;;;7.43;6.53;;;;;;;14.11;100.00;100201.91;7786689;18;20085;-73
2023/04/23 07:30:24;;;;;;;8.40;7.60;;;;;;;14.17;100.00;100193.53;7786431;18;20601;-71
2023/04/23 07:32:51;;;;;;;9.45;7.95;;;;;;;14.28;100.00;100188.28;7786943;18;20006;-71
2023/04/23 07:35:18;;;;;;;6.97;6.45;;;;;;;14.55;100.00;100197.69;7785641;18;19994;-73
2023/04/23 07:37:44;;;;;;;8.05;7.35;;;;;;;14.69;100.00;100209.88;7785302;18;20322;-72
2023/04/23 07:40:11;;;;;;;7.88;7.32;;;;;;;14.98;100.00;100178.56;7744588;18;20399;-71
2023/04/23 07:42:38;;;;;;;8.15;7.13;;;;;;;15.13;100.00;100172.06;7785943;18;20002;-72
2023/04/23 07:45:05;;;;;;;8.15;7.40;;;;;;;14.61;100.00;100078.41;7786158;18;20462;-73
2023/04/23 07:47:31;;;;;;;7.93;6.55;;;;;;;14.93;100.00;100125.22;7786693;18;20468;-72
2023/04/23 07:49:58;;;;;;;7.65;6.85;;;;;;;14.96;100.00;100122.34;7785151;18;20692;-71
2023/04/23 07:52:24;;;;;;;6.88;6.38;;;;;;;15.03;100.00;100112.94;7785382;18;20395;-72
2023/04/23 07:54:51;;;;;;;6.93;6.32;;;;;;;15.08;100.00;100097.56;7785279;18;20297;-71
2023/04/23 07:57:17;;;;;;;6.93;6.43;;;;;;;15.05;100.00;100074.03;7786949;18;19998;-72
2023/04/23 07:59:44;;;;;;;7.18;6.68;;;;;;;15.21;100.00;100083.34;7788252;18;20018;-71
2023/04/23 08:02:10;;;;;;;7.28;6.75;;;;;;;15.32;100.00;100085.97;7791082;18;19998;-72
2023/04/23 08:04:37;;;;;;;7.57;7.07;;;;;;;15.48;100.00;100073.16;7747390;18;20046;-72
2023/04/23 08:07:03;;;;;;;7.03;6.53;;;;;;;15.69;98.89;100065.22;7785800;18;20010;-72
2023/04/23 08:09:30;;;;;;;6.68;6.28;;;;;;;15.64;95.08;100048.94;7785177;18;19995;-71
2023/04/23 08:11:56;;;;;;;6.63;6.22;;;;;;;15.74;93.80;100041.91;7785672;18;20006;-71
2023/04/23 08:14:22;;;;;;;6.80;6.30;;;;;;;15.96;92.49;100040.09;7786581;18;20053;-71
2023/04/23 08:16:49;;;;;;;7.32;6.55;;;;;;;16.05;90.63;100022.59;7788130;18;20061;-74
2023/04/23 08:19:15;;;;;;;7.60;6.78;;;;;;;16.02;87.75;99977.88;7783742;18;20001;-72
2023/04/23 08:21:42;;;;;;;6.40;5.88;;;;;;;15.19;85.91;99811.22;7786732;18;19998;-72
2023/04/23 08:24:08;;;;;;;6.68;6.22;;;;;;;16.32;83.55;99935.47;7789916;18;20009;-70
2023/04/23 08:26:35;;;;;;;6.45;5.90;;;;;;;17.00;80.26;99942.69;7788368;18;20643;-71
2023/04/23 08:29:02;;;;;;;13.55;6.47;;;;;;;17.07;76.13;99898.72;7785897;18;20114;-71
2023/04/23 08:31:31;;;;;;;6.10;5.72;;;;;;;17.29;75.24;99894.91;7788341;18;20038;-71
2023/04/23 08:33:58;;;;;;;7.15;5.85;;;;;;;16.62;72.98;99761.53;7787553;18;20002;-70
2023/04/23 08:36:25;;;;;;;6.40;6.00;;;;;;;17.41;73.42;99860.28;7787999;18;20009;-72
2023/04/23 08:38:51;;;;;;;6.45;6.05;;;;;;;17.72;72.71;99860.84;7787973;18;20000;-71
2023/04/23 08:41:22;;;;;;;6.57;6.10;;;;;;;17.94;71.88;99860.50;7788237;18;20002;-72
2023/04/23 08:44:00;;;;;;;7.40;6.63;;;;;;;17.99;70.56;99827.34;7743857;18;20006;-71
2023/04/23 08:46:31;;;;;;;7.20;6.70;;;;;;;17.89;69.52;99756.56;7788452;18;20002;-71
2023/04/23 08:48:59;;;;;;;8.10;6.38;;;;;;;18.25;68.72;99777.81;7787065;18;20002;-71
2023/04/23 08:51:31;;;;;;;6.68;6.28;;;;;;;18.12;67.11;99692.38;7786973;18;20325;-70
2023/04/23 08:54:04;;;;;;;6.65;6.15;;;;;;;18.40;67.71;99756.03;7785375;18;20273;-75
2023/04/23 08:56:31;;;;;;;6.50;6.10;;;;;;;18.44;66.00;99736.97;7788305;18;20479;-73
2023/04/23 08:58:58;;;;;;;6.50;6.10;;;;;;;18.61;66.21;99737.09;7787291;18;20020;-71
2023/04/23 09:01:25;;;;;;;6.10;5.70;;;;;;;18.65;66.90;99741.09;7788017;18;20014;-71
2023/04/23 09:03:52;;;;;;;6.60;6.20;;;;;;;18.36;65.95;99694.38;7786552;18;20010;-71
2023/04/23 09:06:20;;;;;;;6.57;6.18;;;;;;;18.26;66.87;99698.97;7787840;18;20086;-70
2023/04/23 09:08:46;;;;;;;7.25;6.55;;;;;;;17.71;67.32;99668.94;7786573;18;20049;-71
2023/04/23 09:11:14;;;;;;;6.40;6.00;;;;;;;16.83;70.26;99612.97;7786938;18;20002;-73
2023/04/23 09:13:41;;;;;;;6.35;5.95;;;;;;;17.53;71.90;99745.84;7786882;18;20242;-72
2023/04/23 09:16:07;;;;;;;7.95;6.00;;;;;;;17.62;72.06;99712.31;7787134;18;20017;-73
2023/04/23 09:18:34;;;;;;;8.15;6.57;;;;;;;17.48;70.97;99638.53;7783843;18;19996;-73
2023/04/23 09:21:03;;;;;;;6.13;5.82;;;;;;;18.24;68.46;99699.16;7785157;18;20021;-72
2023/04/23 09:23:30;;;;;;;6.25;5.95;;;;;;;18.28;67.95;99689.03;7785886;18;19998;-74
2023/04/23 09:25:57;;;;;;;6.38;5.97;;;;;;;18.21;67.35;99669.41;7745931;18;20153;-71
2023/04/23 09:28:35;;;;;;;6.55;5.97;;;;;;;18.21;67.09;99658.78;7786654;18;20057;-73
2023/04/23 09:31:04;;;;;;;6.25;5.88;;;;;;;18.30;67.58;99665.78;7746348;18;20360;-73
2023/04/23 09:33:34;;;;;;;6.30;5.78;;;;;;;18.50;66.97;99654.00;7745164;18;20329;-71
2023/04/23 09:36:13;;;;;;;5.95;5.65;;;;;;;18.15;65.36;99554.00;7786546;18;20220;-72
2023/04/23 09:38:42;;;;;;;5.88;5.57;;;;;;;18.63;62.99;99557.06;7787032;18;20036;-71
2023/04/23 09:41:23;;;;;;;6.47;5.88;;;;;;;18.76;61.06;99524.72;7785541;18;20012;-70
2023/04/23 09:43:52;;;;;;;6.05;5.65;;;;;;;18.75;61.98;99521.22;7785537;18;20235;-73
2023/04/23 09:46:31;;;;;;;6.15;5.75;;;;;;;18.88;58.76;99463.16;7786821;18;19998;-72
2023/04/23 09:48:59;;;;;;;6.03;5.63;;;;;;;18.93;58.80;99479.44;7785657;18;20044;-73
2023/04/23 09:51:27;;;;;;;5.68;5.38;;;;;;;18.99;59.69;99493.91;7786988;18;20053;-70
2023/04/23 09:53:53;;;;;;;6.32;5.80;;;;;;;19.16;59.52;99501.88;7785415;18;20072;-71
2023/04/23 09:56:20;;;;;;;6.38;5.80;;;;;;;19.25;58.10;99476.97;7786593;18;20311;-72
2023/04/23 09:58:47;;;;;;;6.78;5.63;;;;;;;19.24;56.94;99412.28;7786161;18;20054;-71
2023/04/23 10:01:14;;;;;;;6.47;6.03;;;;;;;19.01;56.51;99369.59;7746677;18;20202;-71
2023/04/23 10:03:43;;;;;;;6.18;5.68;;;;;;;19.23;55.49;99402.66;7748819;18;20019;-73
2023/04/23 10:06:16;;;;;;;6.05;5.70;;;;;;;19.33;55.33;99365.25;7747174;18;19998;-73
2023/04/23 10:09:03;;;;;;;6.50;6.15;;;;;;;18.41;55.07;99207.84;7785136;18;20245;-72
2023/04/23 10:11:29;;;;;;;6.10;5.60;;;;;;;18.81;54.20;99246.00;7786940;18;20313;-72
2023/04/23 10:13:56;;;;;;;5.93;5.63;;;;;;;19.58;54.70;99354.53;7785807;18;20000;-72
2023/04/23 10:16:22;;;;;;;5.90;5.50;;;;;;;19.93;54.59;99386.03;7788215;18;20148;-72
2023/04/23 10:19:00;;;;;;;6.30;5.65;;;;;;;19.69;52.74;99304.41;7787145;18;20430;-71
2023/04/23 10:21:29;;;;;;;5.97;5.50;;;;;;;19.67;52.78;99329.56;7785355;18;20095;-72
2023/04/23 10:24:10;;;;;;;5.90;5.60;;;;;;;19.68;52.69;99339.19;7786449;18;20105;-71
2023/04/23 10:26:38;;;;;;;6.03;5.65;;;;;;;19.77;52.30;99383.44;7787892;18;20073;-72
2023/04/23 10:29:12;;;;;;;6.53;5.95;;;;;;;19.75;52.20;99425.38;7787924;18;20003;-71
2023/04/23 10:31:40;;;;;;;5.80;5.50;;;;;;;19.76;51.53;99404.91;7788331;18;20673;-71
2023/04/23 10:34:09;;;;;;;6.43;6.00;;;;;;;19.82;51.64;99433.50;7787153;18;19998;-70
2023/04/23 10:36:38;;;;;;;5.90;5.50;;;;;;;19.84;50.94;99411.03;7789317;18;20002;-71
2023/04/23 10:39:07;;;;;;;6.00;5.70;;;;;;;19.57;50.44;99403.44;7786872;18;19998;-71
2023/04/23 10:41:37;;;;;;;5.68;5.32;;;;;;;19.57;51.53;99446.03;7787474;18;20323;-73
2023/04/23 10:44:06;;;;;;;5.90;5.57;;;;;;;19.29;50.39;99417.94;7787271;18;20054;-73
2023/04/23 10:46:33;;;;;;;6.70;6.07;;;;;;;19.37;50.49;99438.38;7789883;18;20010;-71
2023/04/23 10:49:06;;;;;;;5.88;5.50;;;;;;;19.59;50.61;99457.34;7791472;18;20018;-73
2023/04/23 10:51:36;;;;;;;6.30;5.90;;;;;;;19.71;50.39;99448.84;7787144;18;20478;-71
2023/04/23 10:54:07;;;;;;;5.85;5.55;;;;;;;19.01;50.03;99380.22;7784242;18;20061;-71
2023/04/23 10:56:33;;;;;;;6.22;5.93;;;;;;;18.85;50.77;99396.19;7786996;18;20002;-71
2023/04/23 10:59:00;;;;;;;5.57;5.30;;;;;;;18.31;50.62;99316.88;7785544;18;20527;-71
2023/04/23 11:01:29;;;;;;;5.68;5.38;;;;;;;19.69;50.27;99487.25;7787738;18;20073;-72
2023/04/23 11:03:55;;;;;;;5.90;5.50;;;;;;;19.78;50.37;99499.56;7785788;18;20042;-72
2023/04/23 11:06:47;;;;;;;6.13;5.72;;;;;;;20.29;50.26;99515.25;7786645;18;20013;-71
2023/04/23 11:09:36;;;;;;;6.15;5.75;;;;;;;20.83;48.67;99490.56;7787317;18;20006;-72
2023/04/23 11:12:10;;;;;;;5.80;5.50;;;;;;;20.90;47.07;99436.31;7786352;18;20335;-73
2023/04/23 11:14:40;;;;;;;5.90;5.50;;;;;;;21.43;45.77;99471.13;7787719;18;20182;-72
2023/04/23 11:17:11;;;;;;;5.90;5.50;;;;;;;21.19;47.46;99473.94;7744931;18;20002;-73
2023/04/23 11:19:39;;;;;;;6.10;5.60;;;;;;;20.75;47.84;99450.59;7786031;18;20006;-73
2023/04/23 11:22:12;;;;;;;5.93;5.63;;;;;;;20.62;47.35;99432.50;7740999;18;20002;-73
2023/04/23 11:24:41;;;;;;;5.80;5.50;;;;;;;20.53;47.34;99440.53;7785827;18;20399;-71